Time;durP1;ratioP1;P1;durP2;ratioP2;P2;SDS_P1;SDS_P2;PMS_P1;PMS_P2;Temp;Humidity;BMP_temperature;BMP_pressure;BME280_temperature;BME280_humidity;BME280_pressure;Samples;Min_cycle;Max_cycle;Signal;HPM_P1;HPM_P2
2022/04/18 00:02:09;;;;;;;2.10;1.00;;;;;;;4.90;83.32;99188.38;5075943;28;20024;-76
2022/04/18 00:04:35;;;;;;;1.20;1.10;;;;;;;4.89;82.85;99178.44;5080336;28;20019;-75
2022/04/18 00:07:01;;;;;;;1.17;0.90;;;;;;;4.98;82.74;99178.53;5095943;28;20031;-76
2022/04/18 00:09:29;;;;;;;3.95;1.48;;;;;;;4.95;83.20;99173.59;5112700;28;20031;-74
2022/04/18 00:11:55;;;;;;;3.63;1.55;;;;;;;5.05;84.19;99176.19;5094805;28;20180;-76
2022/04/18 00:14:20;;;;;;;3.45;2.00;;;;;;;5.11;84.58;99169.44;5091636;28;20473;-75
2022/04/18 00:16:46;;;;;;;4.82;2.55;;;;;;;5.06;83.65;99170.34;5085502;28;20043;-75
2022/04/18 00:19:11;;;;;;;2.80;1.60;;;;;;;5.17;83.00;99173.72;5094974;28;20019;-75
2022/04/18 00:21:37;;;;;;;1.80;1.27;;;;;;;5.01;83.60;99164.06;5093328;28;20020;-75
2022/04/18 00:24:03;;;;;;;2.08;1.60;;;;;;;5.03;83.07;99167.34;5077923;28;20363;-75
2022/04/18 00:26:28;;;;;;;2.03;1.80;;;;;;;5.05;83.81;99167.84;5113995;28;20024;-74
2022/04/18 00:28:54;;;;;;;1.80;1.38;;;;;;;5.09;83.49;99168.91;5095616;28;20027;-75
2022/04/18 00:31:19;;;;;;;1.85;1.38;;;;;;;5.18;84.57;99157.94;5113135;28;20020;-75
2022/04/18 00:33:45;;;;;;;1.30;1.20;;;;;;;5.14;84.85;99168.00;5111704;28;20028;-74
2022/04/18 00:36:10;;;;;;;3.67;1.38;;;;;;;5.04;85.09;99157.91;5113852;28;20020;-75
2022/04/18 00:38:36;;;;;;;2.30;2.10;;;;;;;5.12;85.25;99159.97;5095462;28;20109;-75
2022/04/18 00:41:02;;;;;;;2.20;2.00;;;;;;;5.09;84.97;99141.19;5095419;28;20456;-75
2022/04/18 00:43:45;;;;;;;3.33;2.42;;;;;;;4.92;85.39;99153.66;5111198;27;20043;-77
2022/04/18 00:46:12;;;;;;;2.85;1.88;;;;;;;4.90;85.12;99167.00;5095234;28;20110;-76
2022/04/18 00:48:38;;;;;;;2.20;2.00;;;;;;;4.98;86.14;99153.59;5108678;28;20046;-74
2022/04/18 00:51:06;;;;;;;1.42;1.33;;;;;;;5.13;85.83;99152.47;5074908;28;20077;-76
2022/04/18 00:53:32;;;;;;;2.53;1.33;;;;;;;5.14;85.69;99143.84;5078910;28;20027;-75
2022/04/18 00:55:59;;;;;;;0.80;0.80;;;;;;;5.25;85.53;99150.03;5090449;28;20051;-75
2022/04/18 00:58:25;;;;;;;0.70;0.70;;;;;;;5.17;85.58;99150.75;5111786;28;20044;-74
2022/04/18 01:00:51;;;;;;;0.80;0.80;;;;;;;5.10;84.53;99137.28;5113306;28;20023;-75
2022/04/18 01:03:19;;;;;;;1.05;0.80;;;;;;;5.08;85.54;99136.78;5094542;28;20032;-75
2022/04/18 01:05:46;;;;;;;0.82;0.82;;;;;;;5.14;85.48;99137.50;5110940;28;20093;-75
2022/04/18 01:08:12;;;;;;;0.80;0.80;;;;;;;5.14;85.20;99137.50;5094678;28;20020;-75
2022/04/18 01:10:38;;;;;;;0.80;0.80;;;;;;;5.24;85.37;99136.47;5094654;28;20019;-75
2022/04/18 01:13:04;;;;;;;1.02;0.93;;;;;;;5.28;85.66;99141.09;5104280;28;20030;-75
2022/04/18 01:15:30;;;;;;;1.25;1.10;;;;;;;5.00;86.26;99134.69;5092110;28;20015;-74
2022/04/18 01:17:56;;;;;;;0.88;0.88;;;;;;;4.76;86.25;99144.00;5073840;28;20482;-75
2022/04/18 01:20:21;;;;;;;0.98;0.95;;;;;;;4.89;86.13;99120.22;5092375;28;20035;-77
2022/04/18 01:22:51;;;;;;;1.15;1.10;;;;;;;4.92;87.13;99136.22;5108274;28;20130;-75
2022/04/18 01:30:52;;;;;;;2.08;1.60;;;;;;;4.42;89.29;99132.09;5112912;28;20080;-77
2022/04/18 01:33:18;;;;;;;3.83;1.58;;;;;;;4.37;89.40;99125.81;5093760;28;20027;-75
2022/04/18 01:35:43;;;;;;;1.30;1.20;;;;;;;4.06;89.54;99118.81;5093040;28;20023;-75
2022/04/18 01:38:09;;;;;;;1.40;1.30;;;;;;;4.18;90.42;99123.88;5112501;28;20070;-74
2022/04/18 01:40:34;;;;;;;1.85;1.60;;;;;;;4.02;90.46;99121.38;5111857;28;20015;-75
2022/04/18 01:43:00;;;;;;;2.97;2.20;;;;;;;4.08;91.19;99111.84;5111531;28;20057;-74
2022/04/18 01:45:25;;;;;;;4.50;3.42;;;;;;;3.96;91.64;99108.72;5094448;28;20027;-75
2022/04/18 01:47:51;;;;;;;5.80;3.58;;;;;;;3.99;92.25;99102.59;5094212;28;20055;-75
2022/04/18 01:50:16;;;;;;;4.45;3.10;;;;;;;3.92;92.15;99113.22;5112470;28;20042;-74
2022/04/18 01:52:42;;;;;;;5.80;3.17;;;;;;;3.84;91.68;99111.09;5112137;28;20019;-75
2022/04/18 01:55:08;;;;;;;4.93;3.30;;;;;;;3.79;92.30;99104.53;5111969;28;20106;-75
2022/04/18 01:57:34;;;;;;;4.18;2.90;;;;;;;3.96;92.32;99102.38;5112084;28;20410;-74
2022/04/18 02:00:00;;;;;;;3.63;3.08;;;;;;;4.00;91.76;99104.25;5094006;28;20030;-74
2022/04/18 02:02:25;;;;;;;3.30;2.45;;;;;;;3.95;90.83;99107.06;5092721;28;20038;-76
2022/04/18 02:04:51;;;;;;;4.70;1.77;;;;;;;4.17;90.59;99108.41;5096430;28;20028;-74
2022/04/18 02:07:16;;;;;;;2.10;1.45;;;;;;;4.16;90.31;99110.38;5096695;28;20032;-74
2022/04/18 02:09:42;;;;;;;1.77;1.42;;;;;;;4.04;90.86;99104.44;5075058;28;20031;-74
2022/04/18 02:12:08;;;;;;;1.60;1.33;;;;;;;3.94;90.72;99099.91;5094237;28;20032;-74
2022/04/18 02:14:33;;;;;;;2.17;1.45;;;;;;;3.77;91.08;99090.19;5091711;28;20020;-74
2022/04/18 02:16:59;;;;;;;2.33;1.25;;;;;;;3.85;91.15;99090.63;5091599;28;20024;-75
2022/04/18 02:19:24;;;;;;;1.40;1.30;;;;;;;3.73;92.12;99093.84;5103336;28;20031;-74
2022/04/18 02:21:50;;;;;;;3.58;1.50;;;;;;;3.71;91.87;99088.59;5105020;28;20060;-74
2022/04/18 02:24:15;;;;;;;2.10;1.70;;;;;;;3.80;92.28;99094.28;5100035;28;20030;-74
2022/04/18 02:26:41;;;;;;;1.30;1.20;;;;;;;3.63;92.38;99092.06;5093314;28;20050;-74
2022/04/18 02:29:06;;;;;;;2.78;1.50;;;;;;;3.74;92.91;99092.72;5111848;28;20107;-74
2022/04/18 02:32:47;;;;;;;2.08;1.48;;;;;;;3.70;92.91;99086.97;5093530;28;20031;-74
2022/04/18 02:34:17;;;;;;;1.40;1.30;;;;;;;3.75;92.28;99089.66;5111804;28;20521;-73
2022/04/18 02:36:43;;;;;;;2.08;1.80;;;;;;;3.78;92.94;99091.00;5093582;28;20189;-74
2022/04/18 02:39:08;;;;;;;1.67;1.58;;;;;;;3.62;93.36;99093.16;5092678;28;20027;-74
2022/04/18 02:41:34;;;;;;;1.40;1.30;;;;;;;3.49;93.43;99094.72;5092989;28;20031;-74
2022/04/18 02:43:59;;;;;;;2.08;1.52;;;;;;;3.71;93.12;99091.38;5110557;28;20035;-74
2022/04/18 02:46:25;;;;;;;1.73;1.40;;;;;;;3.84;93.06;99086.22;5096256;28;20052;-75
2022/04/18 02:48:52;;;;;;;1.60;1.48;;;;;;;4.01;92.85;99083.75;5073289;28;20093;-74
2022/04/18 02:51:18;;;;;;;1.20;1.10;;;;;;;3.90;92.27;99083.06;5081083;28;20053;-73
2022/04/18 02:53:44;;;;;;;2.72;1.10;;;;;;;4.01;91.45;99082.91;5111368;28;20653;-74
2022/04/18 02:56:09;;;;;;;1.40;1.30;;;;;;;3.91;91.07;99075.59;5088939;28;20494;-74
2022/04/18 02:58:35;;;;;;;1.75;1.65;;;;;;;4.20;90.79;99074.56;5104361;28;20566;-74
2022/04/18 03:01:00;;;;;;;3.22;1.70;;;;;;;4.17;89.76;99078.78;5092980;28;20024;-74
2022/04/18 03:03:26;;;;;;;1.83;1.70;;;;;;;4.24;90.41;99077.56;5093377;28;20042;-74
2022/04/18 03:05:51;;;;;;;1.67;1.58;;;;;;;4.37;89.99;99075.97;5092350;28;20032;-74
2022/04/18 03:08:17;;;;;;;3.30;1.50;;;;;;;4.17;90.41;99077.97;5073002;28;20082;-74
2022/04/18 03:13:27;;;;;;;2.03;1.80;;;;;;;4.18;89.62;99074.06;5110712;28;20432;-75
2022/04/18 03:15:52;;;;;;;3.35;2.60;;;;;;;4.14;90.31;99075.81;5111714;28;20032;-74
2022/04/18 03:18:18;;;;;;;3.40;2.90;;;;;;;4.17;90.75;99075.19;5092878;28;20557;-75
2022/04/18 03:20:43;;;;;;;4.82;4.32;;;;;;;4.07;90.22;99077.00;5092785;28;20028;-74
2022/04/18 03:23:09;;;;;;;4.80;3.33;;;;;;;3.99;90.44;99072.16;5092976;28;20133;-74
2022/04/18 03:25:35;;;;;;;6.13;3.45;;;;;;;4.13;90.22;99076.94;5072883;28;20085;-74
2022/04/18 03:28:00;;;;;;;2.20;2.00;;;;;;;4.25;90.24;99077.28;5091036;28;20020;-74
2022/04/18 03:30:26;;;;;;;3.10;1.80;;;;;;;4.49;89.97;99071.59;5097607;28;20413;-74
2022/04/18 03:32:51;;;;;;;2.15;2.00;;;;;;;4.49;89.23;99073.56;5102392;28;20024;-74
2022/04/18 03:35:17;;;;;;;1.90;1.80;;;;;;;4.61;88.49;99062.81;5091807;28;20098;-73
2022/04/18 03:40:26;;;;;;;2.60;2.40;;;;;;;4.73;87.94;99064.25;5106439;28;20092;-74
2022/04/18 03:42:52;;;;;;;3.95;1.92;;;;;;;4.89;87.71;99057.28;5111164;28;20028;-75
2022/04/18 03:45:17;;;;;;;2.45;1.73;;;;;;;4.96;87.52;99062.41;5102556;28;20031;-74
2022/04/18 03:47:43;;;;;;;1.75;1.65;;;;;;;5.01;86.68;99058.72;5096570;28;20028;-74
2022/04/18 03:50:09;;;;;;;1.63;1.52;;;;;;;5.00;86.76;99052.34;5113360;28;20019;-76
2022/04/18 03:52:34;;;;;;;1.98;1.77;;;;;;;5.08;86.33;99052.75;5086528;28;20108;-74
2022/04/18 03:55:00;;;;;;;4.80;2.50;;;;;;;5.14;87.10;99057.09;5110526;28;20023;-74
2022/04/18 03:57:25;;;;;;;3.38;2.58;;;;;;;5.10;85.73;99062.44;5114422;28;20048;-74
2022/04/18 03:59:51;;;;;;;4.50;3.72;;;;;;;5.05;86.24;99071.66;5094270;28;20092;-72
2022/04/18 04:02:16;;;;;;;5.55;3.38;;;;;;;5.09;86.63;99058.00;5110294;28;20031;-72
2022/04/18 04:04:42;;;;;;;3.33;2.40;;;;;;;4.99;86.20;99063.75;5095409;28;20038;-70
2022/04/18 04:07:08;;;;;;;9.20;2.92;;;;;;;4.99;86.34;99064.56;5112823;28;20047;-73
2022/04/18 04:09:34;;;;;;;5.82;3.08;;;;;;;4.99;86.37;99072.06;5095977;28;20483;-68
2022/04/18 04:12:00;;;;;;;2.67;2.30;;;;;;;4.72;86.16;99068.16;5105212;28;20093;-70
2022/04/18 04:14:26;;;;;;;3.00;2.67;;;;;;;4.60;87.61;99068.63;5095001;28;20030;-69
2022/04/18 04:16:52;;;;;;;9.20;6.07;;;;;;;4.82;87.93;99070.72;5114415;28;20473;-69
2022/04/18 04:19:17;;;;;;;12.35;9.02;;;;;;;4.90;87.81;99071.97;5113959;28;20030;-70
2022/04/18 04:21:44;;;;;;;5.18;4.10;;;;;;;4.75;87.70;99075.84;5114002;28;20032;-70
2022/04/18 04:24:10;;;;;;;8.75;5.72;;;;;;;4.53;87.44;99074.56;5097854;28;20092;-71
2022/04/18 04:26:35;;;;;;;5.35;4.80;;;;;;;4.63;87.89;99085.47;5097641;28;20035;-69
2022/04/18 04:29:01;;;;;;;3.63;2.42;;;;;;;4.54;88.54;99080.94;5107150;28;20098;-69
2022/04/18 04:31:27;;;;;;;3.30;2.25;;;;;;;4.64;87.74;99072.44;5091786;28;20024;-70
2022/04/18 04:33:52;;;;;;;6.15;4.00;;;;;;;4.66;88.01;99080.44;5109999;28;20024;-70
2022/04/18 04:36:18;;;;;;;4.50;3.72;;;;;;;4.74;88.27;99074.22;5090916;28;20038;-70
2022/04/18 04:38:43;;;;;;;8.52;4.50;;;;;;;4.72;87.81;99071.72;5090908;28;20568;-70
2022/04/18 04:41:09;;;;;;;148.65;86.93;;;;;;;4.69;87.55;99072.34;5090293;28;20413;-70
2022/04/18 04:43:34;;;;;;;330.85;144.27;;;;;;;4.80;87.61;99067.44;5072125;28;20494;-70
2022/04/18 04:46:00;;;;;;;114.25;60.35;;;;;;;4.69;87.84;99075.13;5089210;28;20024;-69
2022/04/18 04:48:26;;;;;;;37.75;26.88;;;;;;;4.72;88.21;99074.50;5092208;28;20046;-70
2022/04/18 04:50:52;;;;;;;57.25;46.80;;;;;;;4.91;87.93;99077.19;5108891;28;20176;-70
2022/04/18 04:53:18;;;;;;;48.35;34.53;;;;;;;4.92;87.86;99073.28;5080876;28;20458;-70
2022/04/18 04:55:44;;;;;;;16.70;10.43;;;;;;;4.87;87.58;99069.78;5087389;28;20023;-71
2022/04/18 04:58:10;;;;;;;28.38;14.40;;;;;;;4.88;87.34;99075.03;5080552;28;20162;-70
2022/04/18 05:00:36;;;;;;;8.15;3.95;;;;;;;4.76;86.79;99077.50;5090462;28;20016;-69
2022/04/18 05:03:07;;;;;;;4.68;3.50;;;;;;;4.79;86.88;99076.88;5087013;28;20027;-70
2022/04/18 05:05:33;;;;;;;8.02;6.15;;;;;;;4.95;86.99;99082.94;5094151;28;20026;-73
2022/04/18 05:07:59;;;;;;;3.05;2.72;;;;;;;5.05;87.06;99079.16;5087628;28;20057;-73
2022/04/18 05:10:24;;;;;;;2.75;2.10;;;;;;;5.11;87.02;99083.47;5091879;28;20389;-72
2022/04/18 05:12:50;;;;;;;2.97;2.30;;;;;;;5.13;85.75;99091.47;5090483;28;20031;-69
2022/04/18 05:15:16;;;;;;;3.70;2.70;;;;;;;5.08;84.87;99088.81;5106939;28;20439;-71
2022/04/18 05:17:41;;;;;;;3.60;3.10;;;;;;;5.08;84.50;99083.25;5112134;28;20057;-71
2022/04/18 05:20:07;;;;;;;4.28;3.22;;;;;;;4.95;85.02;99094.03;5093489;28;20043;-72
2022/04/18 05:22:33;;;;;;;4.13;3.20;;;;;;;4.97;85.53;99091.78;5093696;28;20023;-71
2022/04/18 05:24:59;;;;;;;4.95;3.58;;;;;;;5.12;85.18;99096.22;5103619;28;20412;-70
2022/04/18 05:27:24;;;;;;;6.30;3.90;;;;;;;5.00;85.34;99106.97;5103949;28;20050;-71
2022/04/18 05:29:50;;;;;;;22.75;11.45;;;;;;;5.19;86.16;99093.84;5075013;28;20035;-73
2022/04/18 05:32:16;;;;;;;6.80;5.18;;;;;;;5.30;85.48;99097.22;5092822;28;20024;-75
2022/04/18 05:34:42;;;;;;;3.03;2.67;;;;;;;5.23;84.99;99104.31;5097009;28;20379;-73
2022/04/18 05:37:08;;;;;;;8.95;5.25;;;;;;;5.26;85.84;99098.16;5092277;28;20020;-75
2022/04/18 05:39:34;;;;;;;10.45;6.13;;;;;;;5.30;85.68;99100.00;5084583;28;20047;-70
2022/04/18 05:42:00;;;;;;;8.93;5.63;;;;;;;5.14;86.21;99099.50;5110349;28;20493;-71
2022/04/18 05:44:26;;;;;;;25.85;12.93;;;;;;;5.22;85.78;99105.47;5105911;28;20028;-73
2022/04/18 05:46:52;;;;;;;37.45;17.25;;;;;;;5.22;85.89;99113.78;5110150;28;20047;-69
2022/04/18 05:49:18;;;;;;;24.40;12.38;;;;;;;5.18;84.71;99114.38;5088266;28;20027;-73
2022/04/18 05:51:43;;;;;;;11.77;5.20;;;;;;;5.13;84.91;99108.09;5106719;27;20019;-74
2022/04/18 05:54:10;;;;;;;12.68;8.35;;;;;;;5.22;86.05;99109.03;5109397;27;20047;-77
2022/04/18 05:56:36;;;;;;;6.32;4.10;;;;;;;5.15;85.56;99109.44;5089977;28;20031;-72
2022/04/18 05:59:02;;;;;;;26.40;16.38;;;;;;;5.22;85.07;99114.59;5078366;28;20044;-71
2022/04/18 06:01:29;;;;;;;25.38;8.63;;;;;;;5.30;85.28;99119.41;5101005;28;20023;-72
2022/04/18 06:03:55;;;;;;;9.98;4.10;;;;;;;5.19;85.77;99116.03;5111378;28;20035;-71
2022/04/18 06:06:21;;;;;;;22.65;7.78;;;;;;;5.30;85.29;99122.19;5111595;28;20106;-72
2022/04/18 06:08:47;;;;;;;15.13;8.60;;;;;;;5.47;85.96;99116.03;5111887;28;20040;-72
2022/04/18 06:11:13;;;;;;;28.23;21.58;;;;;;;5.38;85.65;99119.84;5093497;28;20020;-73
2022/04/18 06:13:38;;;;;;;31.30;23.30;;;;;;;5.32;85.77;99119.94;5093700;28;20020;-70
2022/04/18 06:16:05;;;;;;;15.38;10.25;;;;;;;5.31;85.25;99114.72;5111742;28;20453;-71
2022/04/18 06:18:32;;;;;;;5.57;4.57;;;;;;;5.44;85.71;99113.88;5112067;28;20055;-68
2022/04/18 06:20:58;;;;;;;47.47;37.58;;;;;;;5.31;85.71;99111.94;5094686;28;20020;-73
2022/04/18 06:23:23;;;;;;;29.30;23.83;;;;;;;5.22;86.08;99113.78;5096211;28;20062;-71
2022/04/18 06:25:49;;;;;;;23.70;18.25;;;;;;;5.42;86.03;99124.44;5107158;28;20027;-71
2022/04/18 06:28:15;;;;;;;11.43;9.75;;;;;;;5.48;86.06;99122.38;5111762;28;20142;-71
2022/04/18 06:30:41;;;;;;;13.40;8.98;;;;;;;5.48;86.32;99117.66;5111900;28;20103;-70
2022/04/18 06:33:13;;;;;;;17.65;12.52;;;;;;;5.48;85.11;99123.22;5093523;28;20031;-72
2022/04/18 06:35:41;;;;;;;22.58;13.57;;;;;;;5.54;85.65;99135.03;5111726;28;20023;-69
2022/04/18 06:38:07;;;;;;;15.73;9.95;;;;;;;5.46;85.78;99131.03;5111747;28;20034;-72
2022/04/18 06:40:33;;;;;;;23.58;17.58;;;;;;;5.52;85.99;99134.53;5111646;28;20102;-72
2022/04/18 06:42:59;;;;;;;16.58;10.40;;;;;;;5.45;85.97;99132.16;5093266;28;20027;-73
2022/04/18 06:45:25;;;;;;;23.35;18.15;;;;;;;5.44;86.20;99138.84;5093269;28;20031;-73
2022/04/18 06:47:50;;;;;;;10.48;7.85;;;;;;;5.72;86.17;99133.25;5093364;28;20028;-73
2022/04/18 06:50:16;;;;;;;4.28;3.40;;;;;;;5.67;83.52;99138.09;5111844;28;20024;-73
2022/04/18 06:52:46;;;;;;;19.83;15.70;;;;;;;5.44;83.22;99138.84;5093081;28;20035;-73
2022/04/18 06:55:11;;;;;;;6.20;4.30;;;;;;;5.22;83.55;99142.31;5092554;28;20036;-74
2022/04/18 06:57:38;;;;;;;4.72;3.17;;;;;;;5.48;82.82;99145.41;5110179;28;20078;-73
2022/04/18 07:00:04;;;;;;;5.95;4.13;;;;;;;5.44;82.82;99140.78;5091918;28;20114;-73
2022/04/18 07:02:32;;;;;;;6.53;4.47;;;;;;;5.05;82.17;99137.38;5090223;28;20103;-70
2022/04/18 07:04:57;;;;;;;6.00;4.25;;;;;;;5.22;84.62;99141.50;5096633;28;20032;-73
2022/04/18 07:07:23;;;;;;;7.15;4.85;;;;;;;5.18;82.98;99149.63;5091787;28;20035;-73
2022/04/18 07:09:48;;;;;;;8.15;4.50;;;;;;;4.79;83.73;99151.69;5105338;28;20031;-72
2022/04/18 07:12:14;;;;;;;11.98;8.45;;;;;;;5.01;85.52;99158.53;5096803;28;20028;-74
2022/04/18 07:14:41;;;;;;;3.70;2.83;;;;;;;4.89;84.03;99150.72;5076808;28;20034;-74
2022/04/18 07:17:09;;;;;;;2.65;2.30;;;;;;;5.03;84.55;99153.50;5098670;28;20493;-76
2022/04/18 07:19:34;;;;;;;3.38;2.95;;;;;;;5.08;84.03;99147.88;5115157;28;20031;-74
2022/04/18 07:22:02;;;;;;;4.53;3.20;;;;;;;5.24;83.19;99153.09;5112470;28;20533;-71
2022/04/18 07:24:27;;;;;;;10.10;3.55;;;;;;;5.54;83.59;99151.66;5112264;28;20032;-72
2022/04/18 07:26:53;;;;;;;1.42;1.33;;;;;;;5.68;83.76;99157.22;5112019;28;20032;-72
2022/04/18 07:29:19;;;;;;;1.83;1.73;;;;;;;5.46;83.49;99117.16;5112271;28;20127;-73
2022/04/18 07:31:45;;;;;;;2.63;2.20;;;;;;;5.78;81.37;99164.50;5112108;28;20031;-78
2022/04/18 07:34:10;;;;;;;2.85;1.10;;;;;;;5.70;79.84;99163.28;5112271;28;20109;-74
2022/04/18 07:36:36;;;;;;;3.65;2.38;;;;;;;5.64;79.73;99160.91;5111678;28;20038;-71
2022/04/18 07:39:03;;;;;;;3.75;1.63;;;;;;;5.69;80.07;99166.34;5103518;28;20110;-76
2022/04/18 07:41:29;;;;;;;2.78;2.22;;;;;;;5.78;80.07;99160.88;5091419;28;20024;-73
2022/04/18 07:43:56;;;;;;;14.57;8.13;;;;;;;5.79;80.70;99170.84;5091703;28;20027;-73
2022/04/18 07:46:22;;;;;;;11.90;6.80;;;;;;;5.81;80.22;99165.84;5092024;28;20080;-72
2022/04/18 07:48:49;;;;;;;20.85;10.40;;;;;;;5.88;80.77;99169.84;5073727;28;20028;-72
2022/04/18 07:54:04;;;;;;;27.42;15.15;;;;;;;5.89;82.02;99153.97;5092134;28;20409;-74
2022/04/18 07:56:30;;;;;;;85.05;41.88;;;;;;;6.04;81.95;99180.63;5090610;28;20020;-76
2022/04/18 07:58:55;;;;;;;22.02;13.40;;;;;;;6.00;79.79;99183.16;5107886;28;20074;-71
2022/04/18 08:01:22;;;;;;;13.85;8.45;;;;;;;6.20;78.81;99181.09;5083932;28;20031;-72
2022/04/18 08:03:48;;;;;;;2.53;2.20;;;;;;;6.11;78.58;99180.19;5109669;28;20027;-79
2022/04/18 08:06:14;;;;;;;99.05;50.75;;;;;;;6.18;78.46;99183.38;5093815;28;20057;-74
2022/04/18 08:08:41;;;;;;;16.85;9.25;;;;;;;6.12;80.80;99179.06;5111173;28;20536;-69
2022/04/18 08:11:11;;;;;;;10.57;6.18;;;;;;;5.96;80.82;99186.88;5111444;28;20455;-71
2022/04/18 08:13:40;;;;;;;18.02;9.35;;;;;;;6.08;79.69;99183.59;5108610;28;20403;-74
2022/04/18 08:16:07;;;;;;;4.80;2.78;;;;;;;6.06;79.28;99185.88;5111265;28;20030;-73
2022/04/18 08:18:36;;;;;;;14.07;7.03;;;;;;;6.13;77.93;99183.47;5093029;28;20130;-73
2022/04/18 08:21:02;;;;;;;2.33;2.13;;;;;;;5.90;80.58;99194.50;5090606;28;20031;-73
2022/04/18 08:23:28;;;;;;;1.20;1.10;;;;;;;5.75;80.75;99193.69;5110774;28;20033;-73
2022/04/18 08:25:53;;;;;;;8.95;8.15;;;;;;;5.81;82.57;99194.41;5092878;28;20106;-72
2022/04/18 08:28:19;;;;;;;225.27;161.02;;;;;;;5.86;80.50;99190.69;5090084;28;20032;-71
2022/04/18 08:30:44;;;;;;;134.85;102.22;;;;;;;5.93;80.14;99199.44;5094870;28;20090;-75
2022/04/18 08:33:10;;;;;;;11.10;6.88;;;;;;;5.95;80.69;99188.00;5111153;28;20035;-71
2022/04/18 08:35:35;;;;;;;5.43;2.15;;;;;;;5.89;82.04;99193.69;5092890;28;20493;-70
2022/04/18 08:38:01;;;;;;;8.20;3.10;;;;;;;5.91;81.96;99201.69;5092678;28;20027;-71
2022/04/18 08:40:27;;;;;;;6.00;3.75;;;;;;;5.89;81.02;99195.63;5092731;28;20028;-69
2022/04/18 08:42:56;;;;;;;6.18;5.50;;;;;;;6.07;81.49;99202.19;5111275;28;20024;-70
2022/04/18 08:45:24;;;;;;;2.83;2.08;;;;;;;5.89;80.18;99192.84;5092467;28;20033;-72
2022/04/18 08:53:26;;;;;;;4.25;3.85;;;;;;;5.94;80.03;99200.25;5110763;28;20119;-72
2022/04/18 08:55:52;;;;;;;5.38;3.85;;;;;;;6.12;79.14;99201.28;5092514;28;20031;-72
2022/04/18 08:58:17;;;;;;;4.35;3.03;;;;;;;6.23;80.52;99199.91;5110266;28;20060;-71
2022/04/18 09:00:43;;;;;;;3.60;2.50;;;;;;;6.03;80.44;99198.41;5092235;28;20613;-72
2022/04/18 09:03:11;;;;;;;2.25;1.70;;;;;;;6.04;79.28;99200.91;5110833;28;20413;-72
2022/04/18 09:05:37;;;;;;;9.60;7.18;;;;;;;6.34;79.62;99199.69;5110613;28;20494;-70
2022/04/18 09:08:05;;;;;;;4.97;2.53;;;;;;;6.19;79.56;99204.47;5110220;28;20023;-70
2022/04/18 09:10:32;;;;;;;2.92;2.08;;;;;;;6.14;79.73;99199.84;5089619;28;20592;-72
2022/04/18 09:13:12;;;;;;;1.38;1.27;;;;;;;5.79;79.27;99193.06;5089589;28;20028;-72
2022/04/18 09:15:51;;;;;;;3.45;3.15;;;;;;;6.19;78.27;99193.34;5071386;28;20031;-72
2022/04/18 09:18:21;;;;;;;10.40;8.80;;;;;;;6.40;78.98;99201.22;5089737;28;20124;-72
2022/04/18 09:20:53;;;;;;;34.10;25.80;;;;;;;6.33;77.29;99193.28;5088052;28;20068;-71
2022/04/18 09:23:32;;;;;;;8.35;7.45;;;;;;;6.47;76.27;99201.59;5092476;28;20379;-69
2022/04/18 09:26:04;;;;;;;2.92;2.63;;;;;;;6.55;76.04;99195.28;5088111;28;20032;-70
2022/04/18 09:28:31;;;;;;;2.25;1.92;;;;;;;6.09;77.33;99196.34;5112219;28;20042;-69
2022/04/18 09:31:01;;;;;;;2.53;1.92;;;;;;;6.32;75.85;99200.81;5093473;28;20027;-69
2022/04/18 09:33:56;;;;;;;4.95;3.17;;;;;;;6.72;78.69;99202.09;5111749;28;20375;-71
2022/04/18 09:36:24;;;;;;;2.35;1.70;;;;;;;6.48;76.76;99199.66;5094026;28;20044;-71
2022/04/18 09:38:56;;;;;;;2.25;1.63;;;;;;;6.54;77.31;99190.88;5107943;28;20029;-73
2022/04/18 09:41:27;;;;;;;3.38;2.00;;;;;;;6.79;78.94;99198.88;5094019;28;20058;-72
2022/04/18 09:43:54;;;;;;;1.20;1.10;;;;;;;6.96;75.84;99190.69;5094313;28;20043;-73
2022/04/18 09:46:21;;;;;;;1.85;1.60;;;;;;;7.10;73.11;99198.91;5112606;28;20482;-71
2022/04/18 09:48:49;;;;;;;1.70;1.38;;;;;;;7.07;72.43;99191.22;5112398;28;20027;-73
2022/04/18 09:51:17;;;;;;;7.35;4.13;;;;;;;7.21;72.04;99187.53;5082679;28;20761;-74
2022/04/18 09:53:46;;;;;;;11.65;2.85;;;;;;;7.31;72.13;99195.59;5107522;28;20027;-74
2022/04/18 09:56:16;;;;;;;2.03;1.80;;;;;;;5.97;76.72;99194.91;5112419;28;20024;-74
2022/04/18 09:58:43;;;;;;;14.75;9.10;;;;;;;6.18;76.04;99194.50;5112089;28;20464;-74
2022/04/18 10:01:10;;;;;;;5.95;5.20;;;;;;;6.71;77.47;99192.13;5094229;28;20059;-70
2022/04/18 10:03:37;;;;;;;2.33;2.08;;;;;;;6.79;74.06;99190.53;5089597;28;20085;-72
2022/04/18 10:06:04;;;;;;;3.67;3.00;;;;;;;6.72;74.46;99188.22;5090545;28;20028;-71
2022/04/18 10:08:30;;;;;;;3.42;2.97;;;;;;;6.94;76.62;99189.34;5093638;28;20027;-74
2022/04/18 10:10:58;;;;;;;4.28;3.10;;;;;;;7.30;75.02;99191.19;5112285;28;20080;-73
2022/04/18 10:13:25;;;;;;;4.20;3.08;;;;;;;7.39;73.63;99189.25;5093882;28;20030;-71
2022/04/18 10:15:54;;;;;;;3.92;3.10;;;;;;;7.53;73.63;99186.34;5093835;28;20031;-70
2022/04/18 10:18:20;;;;;;;2.47;2.28;;;;;;;7.45;73.71;99187.97;5112260;28;20032;-69
2022/04/18 10:20:56;;;;;;;3.70;2.40;;;;;;;7.71;72.17;99187.22;5112078;28;20027;-70
2022/04/18 10:23:40;;;;;;;4.63;2.45;;;;;;;7.79;72.42;99182.88;5112282;28;20445;-70
2022/04/18 10:26:34;;;;;;;2.92;2.35;;;;;;;7.83;72.30;99185.78;5093860;28;20032;-69
2022/04/18 10:29:18;;;;;;;4.00;1.90;;;;;;;7.97;72.08;99183.72;5111897;28;20545;-70
2022/04/18 10:31:45;;;;;;;2.00;1.52;;;;;;;7.82;70.10;99186.94;5102289;28;20028;-73
2022/04/18 10:34:14;;;;;;;2.25;1.58;;;;;;;7.79;70.51;99184.81;5106195;28;20034;-71
2022/04/18 10:36:48;;;;;;;2.25;1.70;;;;;;;7.93;72.46;99170.75;5106292;28;20455;-72
2022/04/18 10:39:14;;;;;;;1.70;1.60;;;;;;;7.83;72.94;99181.06;5084668;28;20047;-67
2022/04/18 10:41:45;;;;;;;1.27;1.10;;;;;;;7.64;70.82;99172.97;5110724;28;20073;-70
2022/04/18 10:44:20;;;;;;;2.03;1.75;;;;;;;7.90;69.77;99180.59;5094110;28;20123;-68
2022/04/18 10:46:51;;;;;;;2.00;1.70;;;;;;;8.14;67.34;99173.75;5097531;28;20057;-74
2022/04/18 10:49:20;;;;;;;5.63;5.03;;;;;;;7.80;70.57;99178.94;5097288;28;20019;-72
2022/04/18 10:51:48;;;;;;;4.50;4.10;;;;;;;7.83;71.34;99169.91;5116147;28;20027;-73
2022/04/18 10:54:13;;;;;;;12.43;5.72;;;;;;;7.96;71.06;99170.94;5104349;28;20016;-77
2022/04/18 10:56:58;;;;;;;6.75;5.15;;;;;;;8.10;72.60;99164.41;5110324;28;20099;-71
2022/04/18 10:59:35;;;;;;;9.40;5.32;;;;;;;7.96;70.78;99176.50;5097633;28;20043;-71
2022/04/18 11:02:03;;;;;;;5.10;3.80;;;;;;;7.39;72.53;99166.16;5102291;28;20024;-71
2022/04/18 11:04:31;;;;;;;7.45;5.53;;;;;;;7.39;73.34;99166.16;5113636;28;20027;-69
2022/04/18 11:06:58;;;;;;;4.35;3.95;;;;;;;7.46;74.43;99166.53;5115277;28;20026;-72
2022/04/18 11:09:26;;;;;;;4.00;2.60;;;;;;;7.64;75.14;99170.19;5097426;28;20052;-68
2022/04/18 11:11:53;;;;;;;2.30;1.58;;;;;;;7.51;72.45;99162.78;5115360;28;20023;-68
2022/04/18 11:14:43;;;;;;;3.38;2.80;;;;;;;7.39;75.44;99164.22;5115469;28;20050;-68
2022/04/18 11:17:13;;;;;;;3.45;3.03;;;;;;;7.25;76.88;99167.09;5115374;28;20486;-69
2022/04/18 11:19:42;;;;;;;3.65;3.08;;;;;;;7.11;76.36;99172.75;5103613;28;20596;-67
2022/04/18 11:22:18;;;;;;;2.63;2.43;;;;;;;6.75;76.43;99176.44;5094537;28;20032;-70
2022/04/18 11:24:47;;;;;;;2.65;2.45;;;;;;;6.52;76.70;99167.31;5094731;28;20974;-68
2022/04/18 11:27:14;;;;;;;4.53;2.90;;;;;;;6.44;76.15;99166.91;5094526;28;20058;-69
2022/04/18 11:29:43;;;;;;;2.90;2.50;;;;;;;6.29;74.64;99168.13;5092973;28;20358;-72
2022/04/18 11:32:13;;;;;;;4.28;2.70;;;;;;;6.31;76.62;99176.97;5095820;28;20470;-68
2022/04/18 11:34:43;;;;;;;2.75;2.55;;;;;;;6.26;75.41;99163.16;5102810;28;20402;-70
2022/04/18 11:37:10;;;;;;;2.60;2.35;;;;;;;6.51;74.96;99157.34;5096421;28;20514;-68
2022/04/18 11:39:50;;;;;;;4.15;3.33;;;;;;;6.60;77.80;99158.22;5096609;28;20023;-69
2022/04/18 11:42:21;;;;;;;1.90;1.80;;;;;;;6.71;74.68;99161.56;5114673;28;20028;-68
2022/04/18 11:44:47;;;;;;;;;;;;;;;6.60;73.52;99163.78;5115564;28;20035;-74
2022/04/18 11:47:18;;;;;;;3.40;2.72;;;;;;;6.36;75.02;99152.97;5114474;28;19914;-73
2022/04/18 11:49:45;;;;;;;4.07;2.38;;;;;;;6.33;75.17;99148.84;5114812;28;20024;-76
2022/04/18 11:52:31;;;;;;;3.35;2.65;;;;;;;6.62;75.71;99147.59;5114446;28;20034;-73
2022/04/18 11:55:13;;;;;;;3.40;2.58;;;;;;;6.76;73.87;99149.50;5080461;28;20071;-75
2022/04/18 11:57:41;;;;;;;29.48;14.90;;;;;;;6.79;76.16;99149.69;5077849;28;20056;-70
2022/04/18 12:00:10;;;;;;;12.90;7.72;;;;;;;6.93;76.43;99135.69;5091877;28;20076;-66